Oelwein, IA (50662)

19:20 CST le 27 novembre 2014 (GMT -0600)
Maplewood Dr | Change Station
CLOSE
Current Station
Stations météorologiques personnelles
Location: Oelwein, IA
Altitude: 1135 ft
Stations météo à proximité

Alt. 1135 ft 42.69 °N, 91.91 °W | Updated 1 second ago

Couvert
Couvert
7.4 ° F
Paraît 7 ° F
N
0.0
Vent Variable Vent de NNO
Gusts 0.9 mph

Aujourd'hui
Haut(e) -- | Bas -- ° F
--% Risque de précip.
Hier
Haut(e) -- | Bas -- ° F
Precip. -- pouce
7:13 AM 4:36 PM
Lune montante, 34% visible
Pression 30.40 pouce
Visibilité 10.0 Miles terrestres
Nuages Couvert 13000 ft
Refroidissement éolien 7 ° F
Point de rosée 1 ° F
Humidité 76%
Précipitations 0.00 pouce
Profondeur de la couche neigeuse Non disponible.
UV 0 sur 12
Pollen .10 sur 12
Qualité de l'air Non disponible.
Flu Activity Non disponible.
METAR KOLZ 280055Z AUTO 29004KT 10SM OVC130 M14/M18 A3040 RMK AO2

More Conditions Fewer Conditions

Pression 30.40 pouce
Visibilité 10.0 Miles terrestres
Nuages Couvert 13000 ft
Refroidissement éolien 7 ° F
Point de rosée 1 ° F
Humidité 76%
Précipitations 0.00 pouce
Profondeur de la couche neigeuse Non disponible.
UV 0 sur 12
Pollen .10 sur 12
Qualité de l'air Non disponible.
Flu Activity Non disponible.
METAR KOLZ 280055Z AUTO 29004KT 10SM OVC130 M14/M18 A3040 RMK AO2

More Conditions Fewer Conditions

10-Day Weather Forecast

Almanac

Astronomie

Nov. 27, 2014 Lever Coucher
Temps réel
Crépuscule civil
Crépuscule nautique
Crépuscule astronomique
Lune
Durée de lumière visible
Longueur du jour
Tomorrow will be .
, % of the Moon is Illuminated

Extrêmes aujourd'hui

State Highs State Lows

Community

WunderPhotos

Upload Photos

1,774,148 Photos téléchargées !

WunderBlogs® & News

Nearby

Qualité de l'air

  Qualité de l'air Indice de la qualité de l'air Polluant
Not available.

Épaisseur de neige

Station Depth Altitude

Activité sismique

Ville Distance Mag. Time & Date
Minimum magnitude displayed is 2.5.

Températures des eaux côtières

Lieu Température

Stations météo à proximité